Time;durP1;ratioP1;P1;durP2;ratioP2;P2;SDS_P1;SDS_P2;PMS_P1;PMS_P2;Temp;Humidity;BMP_temperature;BMP_pressure;BME280_temperature;BME280_humidity;BME280_pressure;Samples;Min_cycle;Max_cycle;Signal;HPM_P1;HPM_P2
2023/03/29 00:01:20;;;;;;;1.58;1.40;;;;;;;;;;5089806;28;20236;-80
2023/03/29 00:03:46;;;;;;;2.47;1.48;;;;;;;;;;5089451;28;20024;-76
2023/03/29 00:06:21;;;;;;;5.03;1.45;;;;;;;;;;5088947;28;20099;-74
2023/03/29 00:08:50;;;;;;;4.47;1.65;;;;;;;;;;5089224;28;20025;-74
2023/03/29 00:11:16;;;;;;;2.33;1.48;;;;;;;;;;5092081;28;20102;-74
2023/03/29 00:13:43;;;;;;;1.98;1.40;;;;;;;;;;5109240;28;20061;-74
2023/03/29 00:16:09;;;;;;;2.70;1.80;;;;;;;;;;5108886;28;20077;-74
2023/03/29 00:18:35;;;;;;;3.17;1.73;;;;;;;;;;5108771;28;20106;-76
2023/03/29 00:21:01;;;;;;;1.55;1.42;;;;;;;;;;5108885;28;20027;-74
2023/03/29 00:23:27;;;;;;;2.25;1.40;;;;;;;;;;5108597;28;20020;-74
2023/03/29 00:25:53;;;;;;;2.40;1.70;;;;;;;;;;5108528;28;20031;-74
2023/03/29 00:28:19;;;;;;;2.65;1.58;;;;;;;;;;5108627;28;20364;-73
2023/03/29 00:30:46;;;;;;;1.92;0.90;;;;;;;;;;5108759;28;20046;-74
2023/03/29 00:33:13;;;;;;;2.08;0.82;;;;;;;;;;5109314;28;20039;-83
2023/03/29 00:35:41;;;;;;;0.90;0.90;;;;;;;;;;5108986;28;20027;-80
2023/03/29 00:38:07;;;;;;;2.97;1.20;;;;;;;;;;5108594;28;20027;-80
2023/03/29 00:40:34;;;;;;;3.67;1.15;;;;;;;;;;5108446;28;20075;-77
2023/03/29 00:43:00;;;;;;;1.85;0.98;;;;;;;;;;5096645;28;20044;-84
2023/03/29 00:45:29;;;;;;;1.00;1.00;;;;;;;;;;5097448;28;20480;-79
2023/03/29 00:48:01;;;;;;;1.02;0.93;;;;;;;;;;5108851;28;20027;-75
2023/03/29 00:50:33;;;;;;;1.55;1.00;;;;;;;;;;5107790;28;20512;-84
2023/03/29 00:53:02;;;;;;;1.20;1.10;;;;;;;;;;5107643;28;20031;-79
2023/03/29 00:55:31;;;;;;;3.28;1.17;;;;;;;;;;5107375;28;20015;-80
2023/03/29 00:57:57;;;;;;;1.85;0.95;;;;;;;;;;5088418;28;20059;-79
2023/03/29 01:00:26;;;;;;;1.27;0.65;;;;;;;;;;5107154;28;20078;-82
2023/03/29 01:02:54;;;;;;;1.10;1.05;;;;;;;;;;5107914;28;20023;-80
2023/03/29 01:05:23;;;;;;;0.70;0.68;;;;;;;;;;5089895;28;20067;-76
2023/03/29 01:07:56;;;;;;;0.60;0.60;;;;;;;;;;5107199;28;20047;-79
2023/03/29 01:10:42;;;;;;;2.85;0.75;;;;;;;;;;5107124;28;20024;-80
2023/03/29 01:13:11;;;;;;;1.95;0.88;;;;;;;;;;5069461;28;20115;-81
2023/03/29 01:15:38;;;;;;;2.38;0.90;;;;;;;;;;5086333;28;20028;-81
2023/03/29 01:18:05;;;;;;;1.38;1.00;;;;;;;;;;5067838;28;20453;-78
2023/03/29 01:20:42;;;;;;;0.90;0.90;;;;;;;;;;5068727;28;20036;-79
2023/03/29 01:23:26;;;;;;;2.40;0.88;;;;;;;;;;5087463;28;20027;-73
2023/03/29 01:26:11;;;;;;;1.27;0.60;;;;;;;;;;5087099;28;20129;-73
2023/03/29 01:29:00;;;;;;;1.52;1.10;;;;;;;;;;5087372;28;20484;-82
2023/03/29 01:31:31;;;;;;;2.47;1.48;;;;;;;;;;5041837;28;20507;-81
2023/03/29 01:34:03;;;;;;;2.63;0.90;;;;;;;;;;5089513;28;20461;-77
2023/03/29 01:36:36;;;;;;;1.35;1.08;;;;;;;;;;5087612;28;20229;-81
2023/03/29 01:39:04;;;;;;;1.52;0.80;;;;;;;;;;5088201;28;20032;-76
2023/03/29 01:41:48;;;;;;;3.60;1.02;;;;;;;;;;5089945;28;20031;-81
2023/03/29 01:44:19;;;;;;;2.53;1.38;;;;;;;;;;5089220;28;20020;-79
2023/03/29 01:46:46;;;;;;;1.45;1.25;;;;;;;;;;5088043;28;20024;-75
2023/03/29 01:49:31;;;;;;;3.58;1.48;;;;;;;;;;5069505;28;20040;-81
2023/03/29 01:52:09;;;;;;;1.20;1.05;;;;;;;;;;5087281;28;20035;-80
2023/03/29 01:54:36;;;;;;;1.15;0.95;;;;;;;;;;5086937;28;20028;-77
2023/03/29 01:57:04;;;;;;;2.47;1.05;;;;;;;;;;5068533;28;20020;-77
2023/03/29 01:59:31;;;;;;;1.92;1.10;;;;;;;;;;5068348;28;20571;-77
2023/03/29 02:01:59;;;;;;;1.58;1.00;;;;;;;;;;5068442;28;20030;-79
2023/03/29 02:04:30;;;;;;;1.17;1.02;;;;;;;;;;5087507;28;20039;-75
2023/03/29 02:06:58;;;;;;;2.33;1.00;;;;;;;;;;5086785;28;20055;-77
2023/03/29 02:09:24;;;;;;;2.92;0.93;;;;;;;;;;5087390;28;20682;-79
2023/03/29 02:11:51;;;;;;;2.00;1.35;;;;;;;;;;5079303;28;20024;-77
2023/03/29 02:14:17;;;;;;;0.75;0.70;;;;;;;;;;5086441;28;20175;-77
2023/03/29 02:16:45;;;;;;;2.35;0.98;;;;;;;;;;5068326;28;20117;-78
2023/03/29 02:19:12;;;;;;;1.63;0.70;;;;;;;;;;5068713;28;20126;-75
2023/03/29 02:21:52;;;;;;;1.67;1.17;;;;;;;;;;5068265;28;20448;-74
2023/03/29 02:24:19;;;;;;;0.95;0.88;;;;;;;;;;5068571;28;20028;-74
2023/03/29 02:26:45;;;;;;;2.50;1.25;;;;;;;;;;5068515;28;20028;-76
2023/03/29 02:29:12;;;;;;;1.88;1.05;;;;;;;;;;5087056;28;20480;-74
2023/03/29 02:31:41;;;;;;;1.58;1.00;;;;;;;;;;5088133;28;20043;-74
2023/03/29 02:34:15;;;;;;;2.35;1.42;;;;;;;;;;5069718;28;20065;-74
2023/03/29 02:36:43;;;;;;;3.65;1.60;;;;;;;;;;5069831;28;20016;-73
2023/03/29 02:39:14;;;;;;;1.55;1.40;;;;;;;;;;5087895;28;20020;-74
2023/03/29 02:41:41;;;;;;;3.83;0.95;;;;;;;;;;5069855;28;20107;-75
2023/03/29 02:44:10;;;;;;;5.28;1.33;;;;;;;;;;5088664;28;20024;-78
2023/03/29 02:46:37;;;;;;;1.70;1.40;;;;;;;;;;5089244;28;20020;-78
2023/03/29 02:49:04;;;;;;;2.33;1.30;;;;;;;;;;5071009;28;20411;-76
2023/03/29 02:51:33;;;;;;;2.38;1.30;;;;;;;;;;5071186;28;20028;-77
2023/03/29 02:53:59;;;;;;;;;;;;;;;;;;5089708;28;20038;-78
2023/03/29 02:56:25;;;;;;;1.55;0.82;;;;;;;;;;5089382;28;20275;-76
2023/03/29 02:58:51;;;;;;;5.38;1.17;;;;;;;;;;5089554;28;20046;-78
2023/03/29 03:01:19;;;;;;;3.85;1.08;;;;;;;;;;5075708;28;20031;-77
2023/03/29 03:03:45;;;;;;;2.03;1.15;;;;;;;;;;5093848;28;20162;-75
2023/03/29 03:06:12;;;;;;;1.30;1.20;;;;;;;;;;5093414;28;20020;-75
2023/03/29 03:08:38;;;;;;;2.00;1.05;;;;;;;;;;5093419;28;20322;-77
2023/03/29 03:11:05;;;;;;;2.85;1.38;;;;;;;;;;5074912;28;20047;-76
2023/03/29 03:13:31;;;;;;;2.13;1.40;;;;;;;;;;5074801;28;20028;-78
2023/03/29 03:15:57;;;;;;;1.92;1.67;;;;;;;;;;5074920;28;20375;-78
2023/03/29 03:18:24;;;;;;;2.33;1.63;;;;;;;;;;5093302;28;20595;-76
2023/03/29 03:21:00;;;;;;;1.98;1.15;;;;;;;;;;5093159;28;20094;-77
2023/03/29 03:23:27;;;;;;;1.42;1.17;;;;;;;;;;5093021;28;20019;-76
2023/03/29 03:25:54;;;;;;;2.78;1.73;;;;;;;;;;5092985;28;20073;-77
2023/03/29 03:28:20;;;;;;;3.20;1.10;;;;;;;;;;5093130;28;20044;-78
2023/03/29 03:30:47;;;;;;;1.27;1.17;;;;;;;;;;5093098;28;20062;-77
2023/03/29 03:33:13;;;;;;;5.07;1.88;;;;;;;;;;5074892;28;20024;-76
2023/03/29 03:35:40;;;;;;;3.97;1.40;;;;;;;;;;5074929;28;20030;-77
2023/03/29 03:38:07;;;;;;;2.33;1.55;;;;;;;;;;5074587;28;20514;-77
2023/03/29 03:40:33;;;;;;;4.28;1.92;;;;;;;;;;5074354;28;20032;-77
2023/03/29 03:42:59;;;;;;;2.60;1.52;;;;;;;;;;5074031;28;20036;-77
2023/03/29 03:45:25;;;;;;;3.63;1.85;;;;;;;;;;5074455;28;20027;-76
2023/03/29 03:47:51;;;;;;;2.47;1.33;;;;;;;;;;5074464;28;20066;-76
2023/03/29 03:50:18;;;;;;;2.03;1.48;;;;;;;;;;5074707;28;20174;-77
2023/03/29 03:52:44;;;;;;;1.48;1.38;;;;;;;;;;5092762;28;20048;-77
2023/03/29 03:55:10;;;;;;;4.35;1.20;;;;;;;;;;5092583;28;20028;-76
2023/03/29 03:57:37;;;;;;;5.18;2.28;;;;;;;;;;5092253;28;20020;-78
2023/03/29 04:00:20;;;;;;;1.83;1.30;;;;;;;;;;5092333;28;20033;-76
2023/03/29 04:02:47;;;;;;;2.28;1.15;;;;;;;;;;5092420;28;20469;-78
2023/03/29 04:05:13;;;;;;;1.23;1.00;;;;;;;;;;5092761;28;20032;-77
2023/03/29 04:07:40;;;;;;;2.25;1.38;;;;;;;;;;5092078;28;20130;-80
2023/03/29 04:10:07;;;;;;;2.03;1.48;;;;;;;;;;5074037;28;20024;-77
2023/03/29 04:12:34;;;;;;;2.58;1.58;;;;;;;;;;5092205;28;20020;-79
2023/03/29 04:15:00;;;;;;;1.30;1.20;;;;;;;;;;5074164;28;20504;-77
2023/03/29 04:17:26;;;;;;;3.60;1.60;;;;;;;;;;5092555;28;20047;-78
2023/03/29 04:19:52;;;;;;;1.90;1.15;;;;;;;;;;5092139;28;20046;-78
2023/03/29 04:22:19;;;;;;;2.92;1.65;;;;;;;;;;5092465;28;20016;-78
2023/03/29 04:24:45;;;;;;;0.90;0.90;;;;;;;;;;5074079;28;20532;-74
2023/03/29 04:27:11;;;;;;;1.30;0.82;;;;;;;;;;5091122;28;20054;-73
2023/03/29 04:29:37;;;;;;;1.42;1.13;;;;;;;;;;5089970;28;20081;-73
2023/03/29 04:32:03;;;;;;;1.98;0.80;;;;;;;;;;5071839;28;20035;-73
2023/03/29 04:34:29;;;;;;;5.60;1.38;;;;;;;;;;5089648;28;20036;-73
2023/03/29 04:36:57;;;;;;;1.10;1.00;;;;;;;;;;5071482;28;20031;-75
2023/03/29 04:39:30;;;;;;;1.52;1.25;;;;;;;;;;5089922;28;20372;-74
2023/03/29 04:41:56;;;;;;;0.93;0.90;;;;;;;;;;5089998;28;20050;-74
2023/03/29 04:44:22;;;;;;;1.60;1.33;;;;;;;;;;5090318;28;20031;-75
2023/03/29 04:46:48;;;;;;;1.50;1.38;;;;;;;;;;5090270;28;20039;-75
2023/03/29 04:49:15;;;;;;;7.57;2.90;;;;;;;;;;5089889;28;20046;-75
2023/03/29 04:51:41;;;;;;;1.25;1.10;;;;;;;;;;5089813;28;20024;-77
2023/03/29 04:54:07;;;;;;;5.22;1.05;;;;;;;;;;5089551;28;20036;-75
2023/03/29 04:56:33;;;;;;;2.00;1.20;;;;;;;;;;5089499;28;20024;-74
2023/03/29 04:58:59;;;;;;;1.20;1.00;;;;;;;;;;5089962;28;20279;-75
2023/03/29 05:01:25;;;;;;;0.98;0.98;;;;;;;;;;5091592;28;20059;-73
2023/03/29 05:03:51;;;;;;;1.80;0.95;;;;;;;;;;5091126;28;20028;-73
2023/03/29 05:06:17;;;;;;;1.95;1.50;;;;;;;;;;5091562;28;20105;-76
2023/03/29 05:08:44;;;;;;;3.42;1.30;;;;;;;;;;5091742;28;20028;-77
2023/03/29 05:11:10;;;;;;;2.03;1.30;;;;;;;;;;5091141;28;20154;-75
2023/03/29 05:13:36;;;;;;;3.33;1.30;;;;;;;;;;5090765;28;20028;-77
2023/03/29 05:16:03;;;;;;;3.72;1.30;;;;;;;;;;5091052;28;20039;-77
2023/03/29 05:18:30;;;;;;;2.90;1.75;;;;;;;;;;5091001;28;20031;-76
2023/03/29 05:20:57;;;;;;;6.15;1.42;;;;;;;;;;5090703;28;20032;-76
2023/03/29 05:23:24;;;;;;;2.47;1.27;;;;;;;;;;5090386;28;20216;-78
2023/03/29 05:25:51;;;;;;;2.08;1.02;;;;;;;;;;5072658;28;20055;-74
2023/03/29 05:28:18;;;;;;;3.92;1.30;;;;;;;;;;5090343;28;20022;-74
2023/03/29 05:30:44;;;;;;;3.35;1.33;;;;;;;;;;5090866;28;20024;-74
2023/03/29 05:33:10;;;;;;;2.75;1.00;;;;;;;;;;5090517;28;20089;-75
2023/03/29 05:35:36;;;;;;;3.42;1.10;;;;;;;;;;5090479;28;20032;-73
2023/03/29 05:38:03;;;;;;;1.10;1.00;;;;;;;;;;5090343;28;20427;-74
2023/03/29 05:40:30;;;;;;;2.55;1.05;;;;;;;;;;5090328;28;20082;-74
2023/03/29 05:42:56;;;;;;;2.78;1.55;;;;;;;;;;5090058;28;20476;-73
2023/03/29 05:45:23;;;;;;;1.52;0.85;;;;;;;;;;5090347;28;20020;-73
2023/03/29 05:47:49;;;;;;;1.15;0.85;;;;;;;;;;5090642;28;20208;-75
2023/03/29 05:50:16;;;;;;;3.75;1.63;;;;;;;;;;5090034;28;20028;-76
2023/03/29 05:52:42;;;;;;;2.85;1.30;;;;;;;;;;5090041;28;20252;-77
2023/03/29 05:55:09;;;;;;;2.95;1.23;;;;;;;;;;5090886;28;20058;-76
2023/03/29 05:57:38;;;;;;;3.97;2.85;;;;;;;;;;5072023;28;20299;-74
2023/03/29 06:00:38;;;;;;;2.85;2.55;;;;;;;;;;5089998;28;20063;-77
2023/03/29 06:02:57;;;;;;;3.05;2.35;;;;;;;;;;5086902;28;20461;-76
2023/03/29 06:05:24;;;;;;;2.55;2.10;;;;;;;;;;5090025;28;20111;-76
2023/03/29 06:07:50;;;;;;;5.53;2.50;;;;;;;;;;5089904;28;20012;-77
2023/03/29 06:10:17;;;;;;;2.70;2.08;;;;;;;;;;5094655;27;20080;-76
2023/03/29 06:12:44;;;;;;;2.78;1.52;;;;;;;;;;5091797;28;20481;-77
2023/03/29 06:15:10;;;;;;;1.75;1.63;;;;;;;;;;5110683;28;20023;-76
2023/03/29 06:17:36;;;;;;;3.35;2.15;;;;;;;;;;5091923;28;20055;-74
2023/03/29 06:20:07;;;;;;;2.15;1.42;;;;;;;;;;5110302;28;20035;-77
2023/03/29 06:22:33;;;;;;;3.10;2.53;;;;;;;;;;5110258;28;20019;-73
2023/03/29 06:24:59;;;;;;;3.33;1.70;;;;;;;;;;5109747;28;20540;-74
2023/03/29 06:27:25;;;;;;;1.80;1.70;;;;;;;;;;5091385;28;20019;-74
2023/03/29 06:29:51;;;;;;;1.98;1.67;;;;;;;;;;5091415;28;20072;-73
2023/03/29 06:32:17;;;;;;;1.60;1.50;;;;;;;;;;5109977;28;20072;-77
2023/03/29 06:34:43;;;;;;;1.85;1.60;;;;;;;;;;5090847;28;20027;-79
2023/03/29 06:37:09;;;;;;;5.05;1.40;;;;;;;;;;5091775;28;20031;-76
2023/03/29 06:39:35;;;;;;;1.85;1.70;;;;;;;;;;5110732;28;20471;-77
2023/03/29 06:42:01;;;;;;;5.80;2.00;;;;;;;;;;5092175;28;20387;-76
2023/03/29 06:44:28;;;;;;;3.78;2.08;;;;;;;;;;5092265;28;20038;-76
2023/03/29 06:46:54;;;;;;;3.00;2.53;;;;;;;;;;5110630;28;20024;-78
2023/03/29 06:49:20;;;;;;;2.50;2.30;;;;;;;;;;5091509;28;20028;-77
2023/03/29 06:51:47;;;;;;;4.47;2.50;;;;;;;;;;5091605;28;20023;-76
2023/03/29 06:54:13;;;;;;;6.25;2.83;;;;;;;;;;5109874;28;20047;-76
2023/03/29 06:56:39;;;;;;;3.00;1.80;;;;;;;;;;5094376;28;20028;-77
2023/03/29 06:59:05;;;;;;;2.55;1.92;;;;;;;;;;5090530;28;20022;-77
2023/03/29 07:01:33;;;;;;;4.82;2.17;;;;;;;;;;5089884;28;20019;-77
2023/03/29 07:04:03;;;;;;;3.78;2.33;;;;;;;;;;5089673;28;20024;-76
2023/03/29 07:06:29;;;;;;;2.90;1.80;;;;;;;;;;5089305;28;20051;-75
2023/03/29 07:08:58;;;;;;;5.15;2.83;;;;;;;;;;5089558;28;20076;-77
2023/03/29 07:11:24;;;;;;;32.50;10.07;;;;;;;;;;5089740;28;20019;-79
2023/03/29 07:13:51;;;;;;;20.02;7.03;;;;;;;;;;5089390;28;20494;-78
2023/03/29 07:16:18;;;;;;;13.45;5.18;;;;;;;;;;5089702;28;20516;-76
2023/03/29 07:18:44;;;;;;;7.60;3.85;;;;;;;;;;5089743;28;20031;-80
2023/03/29 07:21:11;;;;;;;3.78;1.90;;;;;;;;;;5089174;28;20143;-77
2023/03/29 07:23:38;;;;;;;9.73;3.20;;;;;;;;;;5089497;28;20029;-77
2023/03/29 07:26:06;;;;;;;2.80;1.77;;;;;;;;;;5089352;28;20388;-76
2023/03/29 07:28:32;;;;;;;3.90;2.17;;;;;;;;;;5107763;28;20082;-76
2023/03/29 07:31:06;;;;;;;4.30;2.78;;;;;;;;;;5109578;28;20503;-76
2023/03/29 07:33:33;;;;;;;4.88;3.40;;;;;;;;;;5109478;28;20028;-75
2023/03/29 07:35:59;;;;;;;7.47;3.53;;;;;;;;;;5109570;28;20440;-80
2023/03/29 07:38:26;;;;;;;7.45;3.50;;;;;;;;;;5091129;28;20467;-79
2023/03/29 07:40:53;;;;;;;4.63;3.20;;;;;;;;;;5090985;28;20062;-79
2023/03/29 07:43:19;;;;;;;10.52;4.07;;;;;;;;;;5109129;28;20261;-79
2023/03/29 07:45:45;;;;;;;4.28;2.78;;;;;;;;;;5093927;28;20278;-79
2023/03/29 07:48:13;;;;;;;7.65;3.38;;;;;;;;;;5095344;28;20080;-77
2023/03/29 07:50:40;;;;;;;5.22;2.72;;;;;;;;;;5095262;28;20454;-79
2023/03/29 07:53:06;;;;;;;5.75;3.47;;;;;;;;;;5095514;28;20022;-78
2023/03/29 07:55:32;;;;;;;4.80;2.72;;;;;;;;;;5095373;28;20458;-79
2023/03/29 07:57:58;;;;;;;2.75;1.83;;;;;;;;;;5113037;28;20099;-80
2023/03/29 08:00:24;;;;;;;5.00;2.45;;;;;;;;;;5112646;28;20028;-78
2023/03/29 08:02:54;;;;;;;3.65;2.60;;;;;;;;;;5094425;28;20047;-76
2023/03/29 08:05:21;;;;;;;4.97;2.45;;;;;;;;;;5112886;28;20061;-74
2023/03/29 08:07:48;;;;;;;4.25;2.83;;;;;;;;;;5112548;28;20024;-74
2023/03/29 08:10:21;;;;;;;2.85;2.13;;;;;;;;;;5115258;28;20058;-74
2023/03/29 08:12:48;;;;;;;8.00;3.35;;;;;;;;;;5116322;28;20338;-76
2023/03/29 08:15:15;;;;;;;5.45;3.05;;;;;;;;;;5112074;28;20484;-74
2023/03/29 08:17:41;;;;;;;5.38;2.85;;;;;;;;;;5111129;28;20052;-73
2023/03/29 08:20:09;;;;;;;4.68;2.58;;;;;;;;;;5092219;28;20460;-75
2023/03/29 08:22:35;;;;;;;2.47;2.28;;;;;;;;;;5092357;28;20027;-74
2023/03/29 08:25:03;;;;;;;4.40;2.30;;;;;;;;;;5110974;28;20206;-73
2023/03/29 08:27:29;;;;;;;4.63;2.60;;;;;;;;;;5110280;28;20094;-74
2023/03/29 08:29:56;;;;;;;4.45;2.00;;;;;;;;;;5091913;28;20028;-73
2023/03/29 08:32:22;;;;;;;4.53;2.70;;;;;;;;;;5091869;28;20110;-73
2023/03/29 08:34:48;;;;;;;3.83;3.03;;;;;;;;;;5110531;28;20110;-74
2023/03/29 08:37:15;;;;;;;4.72;3.30;;;;;;;;;;5091729;28;20042;-74
2023/03/29 08:39:41;;;;;;;4.63;2.97;;;;;;;;;;5110135;28;20082;-74
2023/03/29 08:42:07;;;;;;;4.45;3.20;;;;;;;;;;5091521;28;20023;-76
2023/03/29 08:44:52;;;;;;;7.47;4.00;;;;;;;;;;5091893;28;20416;-74
2023/03/29 08:47:33;;;;;;;6.40;3.30;;;;;;;;;;5111785;28;20363;-76
2023/03/29 08:50:00;;;;;;;4.85;3.00;;;;;;;;;;5092504;28;20057;-76
2023/03/29 08:52:37;;;;;;;7.32;2.92;;;;;;;;;;5093467;28;20027;-76
2023/03/29 08:55:07;;;;;;;5.55;3.55;;;;;;;;;;5093226;28;20054;-76
2023/03/29 08:57:39;;;;;;;6.68;3.17;;;;;;;;;;5110747;28;20122;-76
2023/03/29 09:00:09;;;;;;;7.32;3.45;;;;;;;;;;5111730;28;20032;-76
2023/03/29 09:02:36;;;;;;;7.80;3.85;;;;;;;;;;5093474;28;20113;-77
2023/03/29 09:05:08;;;;;;;6.93;3.78;;;;;;;;;;5093072;28;20105;-75
2023/03/29 09:07:34;;;;;;;5.60;3.88;;;;;;;;;;5093435;28;20062;-74
2023/03/29 09:10:01;;;;;;;6.78;4.00;;;;;;;;;;5092916;28;20476;-74
2023/03/29 09:12:33;;;;;;;8.32;4.10;;;;;;;;;;5111152;28;20104;-76
2023/03/29 09:15:07;;;;;;;4.97;3.65;;;;;;;;;;5092688;28;20045;-77
2023/03/29 09:17:48;;;;;;;7.85;3.83;;;;;;;;;;5092963;28;20050;-76
2023/03/29 09:20:25;;;;;;;4.30;2.83;;;;;;;;;;5093167;28;20036;-76
2023/03/29 09:23:05;;;;;;;5.03;2.97;;;;;;;;;;5093318;28;20413;-77
2023/03/29 09:25:42;;;;;;;7.68;3.70;;;;;;;;;;5092796;28;20073;-77
2023/03/29 09:28:18;;;;;;;7.53;4.07;;;;;;;;;;5092529;28;20034;-76
2023/03/29 09:30:58;;;;;;;7.38;3.03;;;;;;;;;;5110935;28;20054;-77
2023/03/29 09:33:36;;;;;;;7.93;4.20;;;;;;;;;;5092399;28;20042;-77
2023/03/29 09:36:08;;;;;;;8.32;3.67;;;;;;;;;;5092683;28;20059;-77
2023/03/29 09:38:36;;;;;;;6.90;2.90;;;;;;;;;;5092864;28;20027;-78
2023/03/29 09:41:05;;;;;;;4.33;2.77;;;;;;;;;;5092949;28;20368;-77
2023/03/29 09:43:34;;;;;;;3.25;1.52;;;;;;;;;;5092661;28;20024;-79
2023/03/29 09:46:02;;;;;;;4.03;2.58;;;;;;;;;;5110920;28;20046;-77
2023/03/29 09:48:29;;;;;;;6.18;4.07;;;;;;;;;;5110772;28;20104;-76
2023/03/29 09:50:56;;;;;;;2.38;0.95;;;;;;;;;;5110588;28;20106;-79
2023/03/29 09:53:22;;;;;;;4.40;1.38;;;;;;;;;;5092401;28;20031;-77
2023/03/29 09:55:49;;;;;;;5.75;1.98;;;;;;;;;;5110744;28;20047;-76
2023/03/29 09:58:20;;;;;;;7.07;2.47;;;;;;;;;;5110918;28;20084;-77
2023/03/29 10:00:47;;;;;;;2.35;1.88;;;;;;;;;;5092157;28;20035;-77
2023/03/29 10:03:26;;;;;;;4.00;0.57;;;;;;;;;;5110696;28;20081;-76
2023/03/29 10:05:53;;;;;;;;;;;;;;;;;;5092476;28;20477;-78
2023/03/29 10:08:27;;;;;;;1.00;0.52;;;;;;;;;;5089327;28;20188;-79
2023/03/29 10:10:53;;;;;;;1.85;0.70;;;;;;;;;;5100100;27;20058;-78
2023/03/29 10:13:30;;;;;;;0.50;0.50;;;;;;;;;;5110311;28;20028;-76
2023/03/29 10:16:02;;;;;;;2.55;0.25;;;;;;;;;;5091683;28;20456;-76
2023/03/29 10:18:29;;;;;;;0.63;0.60;;;;;;;;;;5110690;28;20606;-77
2023/03/29 10:20:59;;;;;;;3.05;0.70;;;;;;;;;;5091955;28;20036;-75
2023/03/29 10:23:29;;;;;;;1.10;0.50;;;;;;;;;;5110204;28;20098;-75
2023/03/29 10:25:55;;;;;;;3.97;0.40;;;;;;;;;;5109950;28;20023;-77
2023/03/29 10:28:22;;;;;;;3.08;1.67;;;;;;;;;;5109825;28;20020;-79
2023/03/29 10:30:52;;;;;;;6.35;1.58;;;;;;;;;;5091786;28;20019;-77
2023/03/29 10:33:20;;;;;;;1.63;1.15;;;;;;;;;;5110277;28;20023;-78
2023/03/29 10:35:47;;;;;;;3.78;2.95;;;;;;;;;;5110135;28;20016;-77
2023/03/29 10:38:16;;;;;;;4.25;2.35;;;;;;;;;;5091896;28;20547;-80
2023/03/29 10:40:44;;;;;;;8.77;3.77;;;;;;;;;;5109866;28;20114;-80
2023/03/29 10:43:13;;;;;;;3.53;1.90;;;;;;;;;;5110079;28;20020;-80
2023/03/29 10:45:39;;;;;;;;;;;;;;;;;;5110528;28;20027;-78
2023/03/29 10:48:06;;;;;;;3.92;1.98;;;;;;;;;;5091762;28;20314;-79
2023/03/29 10:50:34;;;;;;;3.05;1.67;;;;;;;;;;5110154;28;20486;-79
2023/03/29 10:53:01;;;;;;;3.55;1.85;;;;;;;;;;5075203;28;20043;-79
2023/03/29 10:55:32;;;;;;;5.80;2.17;;;;;;;;;;5110306;28;20059;-79
2023/03/29 10:58:05;;;;;;;4.60;2.13;;;;;;;;;;5110127;28;20188;-78
2023/03/29 11:00:57;;;;;;;5.50;1.67;;;;;;;;;;5091457;28;20487;-78
2023/03/29 11:03:23;;;;;;;7.80;2.20;;;;;;;;;;5104980;28;20035;-77
2023/03/29 11:05:54;;;;;;;4.20;2.20;;;;;;;;;;5091213;28;20051;-78
2023/03/29 11:08:23;;;;;;;3.40;2.13;;;;;;;;;;5109973;28;20026;-78
2023/03/29 11:10:57;;;;;;;4.43;1.95;;;;;;;;;;5109792;28;20046;-75
2023/03/29 11:13:40;;;;;;;7.47;2.10;;;;;;;;;;5109735;28;20123;-76
2023/03/29 11:16:24;;;;;;;4.50;1.50;;;;;;;;;;5091198;28;20031;-78
2023/03/29 11:19:03;;;;;;;4.50;1.95;;;;;;;;;;5091309;28;20324;-76
2023/03/29 11:21:29;;;;;;;5.53;1.83;;;;;;;;;;5094354;28;20130;-78
2023/03/29 11:24:04;;;;;;;5.78;2.10;;;;;;;;;;5095161;28;20475;-77
2023/03/29 11:26:51;;;;;;;5.88;1.60;;;;;;;;;;5095325;28;20118;-75
2023/03/29 11:29:29;;;;;;;2.92;1.38;;;;;;;;;;5094964;28;20030;-76
2023/03/29 11:31:58;;;;;;;6.10;1.95;;;;;;;;;;5095024;28;20015;-77
2023/03/29 11:34:36;;;;;;;2.60;1.63;;;;;;;;;;5113403;28;20024;-74
2023/03/29 11:37:21;;;;;;;2.47;1.75;;;;;;;;;;5094914;28;20035;-79
2023/03/29 11:40:06;;;;;;;3.10;1.13;;;;;;;;;;5094656;28;20031;-77
2023/03/29 11:42:33;;;;;;;3.83;1.48;;;;;;;;;;5095028;28;20031;-76
2023/03/29 11:45:01;;;;;;;2.42;1.40;;;;;;;;;;5113057;28;20046;-77
2023/03/29 11:47:31;;;;;;;3.65;1.30;;;;;;;;;;5113423;28;20032;-77
2023/03/29 11:49:59;;;;;;;2.22;1.13;;;;;;;;;;5113398;28;20448;-77
2023/03/29 11:52:34;;;;;;;3.75;1.60;;;;;;;;;;5094715;28;20391;-77
2023/03/29 11:55:11;;;;;;;2.90;1.40;;;;;;;;;;5094612;28;20028;-75
2023/03/29 11:57:43;;;;;;;4.00;1.17;;;;;;;;;;5094421;28;20459;-75
2023/03/29 12:00:23;;;;;;;2.20;0.35;;;;;;;;;;5112630;28;20028;-75
2023/03/29 12:02:55;;;;;;;1.45;0.55;;;;;;;;;;5112901;28;20372;-78
2023/03/29 12:05:21;;;;;;;0.70;0.70;;;;;;;;;;5094651;28;20024;-77
2023/03/29 12:07:53;;;;;;;2.28;1.17;;;;;;;;;;5094788;28;20390;-77
2023/03/29 12:10:20;;;;;;;1.50;0.68;;;;;;;;;;5094664;28;20065;-76
2023/03/29 12:12:51;;;;;;;1.30;0.90;;;;;;;;;;5094451;28;20027;-77
2023/03/29 12:15:19;;;;;;;1.58;0.90;;;;;;;;;;5094142;28;20047;-78
2023/03/29 12:17:48;;;;;;;0.70;0.63;;;;;;;;;;5094311;28;20130;-77
2023/03/29 12:20:19;;;;;;;0.73;0.47;;;;;;;;;;5112871;28;20510;-78
2023/03/29 12:22:46;;;;;;;1.55;0.75;;;;;;;;;;5113082;28;20348;-78
2023/03/29 12:25:16;;;;;;;1.55;0.95;;;;;;;;;;5112884;28;20022;-78
2023/03/29 12:27:51;;;;;;;1.35;0.43;;;;;;;;;;5094416;28;20095;-76
2023/03/29 12:30:20;;;;;;;1.08;0.40;;;;;;;;;;5112115;28;20032;-79
2023/03/29 12:32:49;;;;;;;1.55;0.45;;;;;;;;;;5092780;28;20026;-78
2023/03/29 12:35:39;;;;;;;2.08;0.57;;;;;;;;;;5094084;28;20114;-76
2023/03/29 12:38:07;;;;;;;0.85;0.50;;;;;;;;;;5099387;28;20035;-77
2023/03/29 12:40:41;;;;;;;1.45;0.35;;;;;;;;;;5094035;28;20066;-78
2023/03/29 12:43:08;;;;;;;4.15;0.55;;;;;;;;;;5093752;28;20029;-78
2023/03/29 12:45:39;;;;;;;0.77;0.60;;;;;;;;;;5112471;28;20031;-77
2023/03/29 12:48:06;;;;;;;4.03;0.38;;;;;;;;;;5112346;28;20448;-79
2023/03/29 12:50:33;;;;;;;0.30;0.30;;;;;;;;;;5112178;28;20027;-78
2023/03/29 12:53:04;;;;;;;2.08;0.50;;;;;;;;;;5112200;28;20030;-77
2023/03/29 12:55:30;;;;;;;2.17;0.95;;;;;;;;;;5112054;28;20027;-77
2023/03/29 12:58:07;;;;;;;3.13;0.45;;;;;;;;;;5111827;28;20027;-78
2023/03/29 13:00:36;;;;;;;1.45;0.60;;;;;;;;;;5093507;28;20065;-78
2023/03/29 13:03:03;;;;;;;1.27;0.57;;;;;;;;;;5111901;28;20026;-77
2023/03/29 13:05:33;;;;;;;2.00;1.20;;;;;;;;;;5112016;28;20106;-78
2023/03/29 13:08:10;;;;;;;1.08;0.32;;;;;;;;;;5093381;28;20019;-77
2023/03/29 13:10:39;;;;;;;2.28;0.65;;;;;;;;;;5111698;28;20016;-76
2023/03/29 13:13:11;;;;;;;2.60;0.80;;;;;;;;;;5111664;28;20035;-75
2023/03/29 13:15:38;;;;;;;2.47;0.50;;;;;;;;;;5111727;28;20085;-74
2023/03/29 13:18:24;;;;;;;4.70;1.48;;;;;;;;;;5111323;28;20453;-75
2023/03/29 13:20:50;;;;;;;2.13;0.75;;;;;;;;;;5059731;28;20040;-78
2023/03/29 13:23:25;;;;;;;3.25;0.70;;;;;;;;;;5093256;28;20035;-79
2023/03/29 13:26:12;;;;;;;5.40;1.13;;;;;;;;;;5111248;28;20037;-78
2023/03/29 13:28:38;;;;;;;2.67;0.70;;;;;;;;;;5111045;28;20032;-79
2023/03/29 13:31:11;;;;;;;4.40;0.93;;;;;;;;;;5093060;28;20020;-78
2023/03/29 13:34:01;;;;;;;1.60;1.10;;;;;;;;;;5093057;28;20066;-79
2023/03/29 13:36:53;;;;;;;3.03;0.68;;;;;;;;;;5093119;28;20035;-79
2023/03/29 13:39:21;;;;;;;4.57;1.30;;;;;;;;;;5092634;28;20051;-78
2023/03/29 13:41:51;;;;;;;0.68;0.63;;;;;;;;;;5111179;28;20034;-77
2023/03/29 13:44:29;;;;;;;8.00;1.00;;;;;;;;;;5092103;28;20051;-78
2023/03/29 13:47:21;;;;;;;2.05;0.88;;;;;;;;;;5110921;28;20077;-79
2023/03/29 13:49:57;;;;;;;3.55;0.70;;;;;;;;;;5106211;28;20040;-77
2023/03/29 13:52:59;;;;;;;4.55;0.77;;;;;;;;;;5110974;28;20057;-78
2023/03/29 13:55:31;;;;;;;8.60;1.52;;;;;;;;;;5008008;28;20435;-79
2023/03/29 13:58:16;;;;;;;3.35;0.40;;;;;;;;;;5094132;28;20069;-79
2023/03/29 14:00:47;;;;;;;1.35;0.80;;;;;;;;;;5110945;28;20038;-79
2023/03/29 14:03:14;;;;;;;1.95;0.68;;;;;;;;;;5110998;28;20064;-76
2023/03/29 14:05:47;;;;;;;8.98;1.30;;;;;;;;;;5110335;28;20019;-75
2023/03/29 14:08:13;;;;;;;3.38;0.80;;;;;;;;;;5110311;28;20020;-75
2023/03/29 14:10:41;;;;;;;4.45;0.85;;;;;;;;;;5095489;28;20574;-76
2023/03/29 14:13:10;;;;;;;3.38;0.63;;;;;;;;;;5089490;28;20401;-74
2023/03/29 14:15:44;;;;;;;1.88;0.80;;;;;;;;;;5071894;28;20367;-79
2023/03/29 14:18:12;;;;;;;1.27;0.65;;;;;;;;;;5090562;28;20024;-78
2023/03/29 14:20:42;;;;;;;8.90;1.13;;;;;;;;;;5090311;28;20496;-79
2023/03/29 14:23:12;;;;;;;2.72;0.80;;;;;;;;;;5090001;28;20036;-78
2023/03/29 14:25:39;;;;;;;6.70;0.82;;;;;;;;;;5071933;28;20522;-79
2023/03/29 14:28:22;;;;;;;4.40;0.75;;;;;;;;;;5089830;28;20020;-79
2023/03/29 14:30:51;;;;;;;4.30;1.30;;;;;;;;;;5090250;28;20028;-78
2023/03/29 14:33:27;;;;;;;3.30;1.38;;;;;;;;;;5090268;28;20447;-78
2023/03/29 14:35:57;;;;;;;2.67;0.60;;;;;;;;;;5089786;28;20031;-78
2023/03/29 14:38:25;;;;;;;1.90;1.10;;;;;;;;;;5071897;28;20078;-78
2023/03/29 14:40:51;;;;;;;4.32;1.00;;;;;;;;;;5089702;28;20035;-78
2023/03/29 14:43:19;;;;;;;2.50;0.90;;;;;;;;;;5071335;28;20028;-79
2023/03/29 14:45:46;;;;;;;7.75;0.70;;;;;;;;;;5089630;28;20107;-74
2023/03/29 14:48:13;;;;;;;0.77;0.40;;;;;;;;;;5071377;28;20068;-75
2023/03/29 14:50:39;;;;;;;2.72;0.63;;;;;;;;;;5089483;28;20039;-75
2023/03/29 14:53:06;;;;;;;1.20;0.70;;;;;;;;;;5089596;28;20019;-79
2023/03/29 14:55:32;;;;;;;3.38;1.30;;;;;;;;;;5070610;28;20016;-74
2023/03/29 14:57:59;;;;;;;6.55;1.25;;;;;;;;;;5089064;28;20029;-75